Tiempo atmosférico en la estación meteorológica de Fuente El Sol, Valladolid (755 m.)



Fecha
DESCASC
Temp. máxima en grados centígrados (hora)
DESCASC
Temp. mínima en grados centígrados (hora)
DESCASC
Temp. media en grados centígrados
DESCASC
Racha de viento máxima en m/sg (hora)
DESCASC
Velocidad máxima media en intervalos de 10 minutos(hora)
DESCASC
Precipitaciones diarias en mm
DESCASC
Precipitaciones de 00:00 a 06:00 en mm
DESCASC
Precipitaciones de 06:00 a 12:00 en mm
DESCASC
Precipitaciones de 12:00 a 18:00 en mm
DESCASC
Precipitaciones de 18:00 a 24:00 en mm
DESCASC
13-10-2019 24.5 (16:40) 12.4 (08:10) 18.4 11.11 (15:10) 8.06 (03:20) 0 0 0 0 0
12-10-2019 28.5 (17:00) 15.4 (00:10) 21.9 13.89 (16:10) 10.56 (17:50) 0 0 0 0 0
10-10-2019 27.5 (18:30) 4.6 (00:00) 16 5.56 (15:30) 3.06 (14:00) 0 0 0 0 0
09-10-2019 24.2 (18:30) 11.9 (00:00) 18.1 5.83 (16:00) 4.44 (02:20) 0 0 0 0 0
08-10-2019 29.7 (16:50) 8.5 (00:00) 19.1 8.33 (16:40) 5.56 (17:40) 0 0 0 0 0
07-10-2019 28.2 (17:10) 7.1 (00:00) 17.7 6.11 (01:20) 4.72 (01:20) 0 0 0 0 0
06-10-2019 26 (16:40) 8.7 (00:00) 17.3 6.94 (08:40) 4.72 (08:50) 0 0 0 0 0
05-10-2019 26.8 (18:20) 8.1 (08:20) 17.4 6.67 (16:10) 4.17 (20:50) 0 0 0 0 0
04-10-2019 24.4 (18:00) 10.1 (00:00) 17.3 7.5 (17:00) 4.44 (16:50) 0 0 0 0 0
03-10-2019 27 (18:20) 5.5 (00:00) 16.3 7.22 (14:10) 3.89 (14:00) 0 0 0 0 0
02-10-2019 22.6 (17:00) 8 (00:00) 15.3 9.72 (01:20) 6.94 (01:10) 0 0 0 0 0
01-10-2019 23.4 (17:40) 13.2 (00:00) 18.3 11.11 (14:00) 8.06 (14:10) 0 0 0 0 0
30-09-2019 29.3 (16:00) 9.3 (00:00) 19.3 10.28 (16:20) 5 (17:40) 0 0 0 0 0
29-09-2019 28.3 (17:00) 8.1 (00:00) 18.2 10.28 (18:10) 6.11 (14:40) 0 0 0 0 0
28-09-2019 28 (18:10) 7.4 (00:00) 17.7 5.28 (16:40) 2.78 (16:40) 0 0 0 0 0
27-09-2019 25.9 (18:10) 9.3 (00:00) 17.6 12.22 (16:40) 5.83 (16:50) 0 0 0 0 0
26-09-2019 27.1 (18:40) 10.1 (00:00) 18.6 9.17 (16:00) 6.39 (15:50) 0 0 0 0 0
25-09-2019 22.2 (16:50) 8.6 (00:00) 15.4 7.5 (01:20) 5.28 (01:20) 0 0 0 0 0
24-09-2019 22.4 (15:40) 9.7 (00:00) 16 11.94 (16:50) 8.33 (16:50) 0 0 0 0 0
23-09-2019 22.5 (17:20) 8.6 (00:00) 15.6 8.06 (17:00) 5 (18:00) 0 0 0 0 0
22-09-2019 20.1 (18:00) 11.3 (00:00) 15.7 11.67 (02:50) 8.61 (02:30) 5.2 5.2 0 0 0
21-09-2019 20.4 (16:30) 12.9 (00:00) 16.6 9.17 (19:20) 7.22 (19:20) 1 0 0 1 0
20-09-2019 27.3 (15:50) 14.8 (00:00) 21 13.06 (12:40) 9.72 (10:50) 0.4 0 0 0 0.4
19-09-2019 29.4 (17:00) 11.1 (00:00) 20.3 5 (16:20) 3.06 (16:20) 0 0 0 0 0
18-09-2019 26.3 (18:20) 11.6 (00:00) 18.9 6.67 (00:30) 5 (00:20) 0 0 0 0 0
17-09-2019 28.5 (18:30) 11.4 (00:00) 19.9 20.83 (20:40) 15.28 (20:50) 9.4 0 0 0 9.4

Gráficas

Temp. máximas Temp. mínimas Temp. medias Precipitaciones Rachas de viento máximas Velocidades máximas media en intervalos de 10 minutos

Datos horarios

Fecha y hora oficial Temperatura (ºC) Velocidad del viento (km/h) Dirección del viento Racha (km/h) Dirección de racha Precipitación (mm) Presión (hPa) Tendencia (hPa) Humedad (%)
2019-10-16 23:00:00 12.8 18 Sudoeste 27 Sudoeste 0 -- -- 70
2019-10-16 22:00:00 13.1 18 Sudoeste 30 Sudoeste 0 -- -- 68
2019-10-16 21:00:00 14.2 23 Sudoeste 36 Sudoeste 0 -- -- 63
2019-10-16 20:00:00 15.5 20 Sudoeste 27 Sur 0 -- -- 57
2019-10-16 19:00:00 17 18 Sur 30 Sudoeste 0 -- -- 51
2019-10-16 18:00:00 18.2 19 Sur 29 Sudoeste 0 -- -- 47
2019-10-16 17:00:00 18.7 15 Sur 32 Sudoeste 0 -- -- 44
2019-10-16 16:00:00 18.2 17 Sudoeste 35 Sudoeste 0 -- -- 43
2019-10-16 15:00:00 16.9 21 Sudoeste 33 Sudoeste 0 -- -- 42
2019-10-16 14:00:00 16.9 23 Sudoeste 39 Sur 0 -- -- 46
2019-10-16 13:00:00 15.7 24 Sur 33 Sur 0 -- -- 48
2019-10-16 12:00:00 13.8 24 Sur 35 Sur 0 -- -- 63
2019-10-16 11:00:00 13.1 24 Sur 33 Sur 0 -- -- 68
2019-10-16 10:00:00 10.4 18 Sur 27 Sur 0 -- -- 79
2019-10-16 09:00:00 8.4 10 Sur 17 Sur 0 -- -- 87
2019-10-16 08:00:00 6.7 12 Sur 16 Sur 0 -- -- 90
2019-10-16 07:00:00 6.8 13 Sur 17 Sur 0 -- -- 89
2019-10-16 06:00:00 6.8 11 Sur 14 Sur 0 -- -- 89
2019-10-16 05:00:00 7.8 11 Sur 26 Sur 0 -- -- 84
2019-10-16 04:00:00 8.5 12 Sur 16 Sur 0 -- -- 83
2019-10-16 03:00:00 8.7 12 Sudoeste 15 Sur 0 -- -- 85
2019-10-16 02:00:00 9.9 13 Sur 22 Sur 0 -- -- 79
2019-10-16 01:00:00 10.6 14 Sur 20 Sur 0 -- -- 76
2019-10-16 00:00:00 10.8 13 Sur 21 Sur 0 -- -- 75
2019-10-15 23:00:00 11 14 Sur 22 Sur 0 -- -- 75
2019-10-15 22:00:00 11.5 13 Sur 19 Sur 0 -- -- 67
2019-10-15 21:00:00 10.6 8 Sur 11 Sur 0 -- -- 72
2019-10-15 20:00:00 11.8 5 Sur 22 Sudoeste 0 -- -- 65
2019-10-15 19:00:00 13.7 16 Sudoeste 23 Sudoeste 0 -- -- 54
2019-10-15 18:00:00 14.3 14 Sudoeste 30 Sudoeste 0 -- -- 52
2019-10-15 17:00:00 14.2 19 Sudoeste 31 Sudoeste 0 -- -- 53
2019-10-15 16:00:00 13.9 17 Sudoeste 36 Sudoeste 0 -- -- 54
2019-10-15 15:00:00 13.8 13 Sudoeste 28 Sudoeste 0 -- -- 52
2019-10-15 14:00:00 13.2 19 Sudoeste 30 Sudoeste 0 -- -- 60
2019-10-15 13:00:00 12.3 18 Sudoeste 30 Sudoeste 0 -- -- 68
2019-10-15 12:00:00 11.4 19 Sudoeste 29 Sudoeste 0 -- -- 78
2019-10-15 11:00:00 9.4 20 Sudoeste 32 Sudoeste 0 -- -- 84
2019-10-15 10:00:00 7.5 21 Sudoeste 29 Sudoeste 0 -- -- 88
2019-10-15 09:00:00 5.9 15 Sur 30 Sudoeste 0 -- -- 91
2019-10-15 08:00:00 5.5 19 Sudoeste 31 Sudoeste 0 -- -- 91
2019-10-15 07:00:00 5.4 19 Sur 27 Sur 0 -- -- 90
2019-10-15 06:00:00 5.6 20 Sudoeste 28 Sur 0 -- -- 89
2019-10-15 05:00:00 5.1 15 Sur 32 Sudoeste 0 -- -- 91
2019-10-15 04:00:00 5.7 19 Sudoeste 26 Sudoeste 0 -- -- 89
2019-10-15 03:00:00 6.3 22 Sudoeste 35 Sudoeste 0 -- -- 86
2019-10-15 02:00:00 6.5 23 Sudoeste 33 Sudoeste 0 -- -- 85
2019-10-15 01:00:00 7 22 Sudoeste 31 Sudoeste 0 -- -- 85
2019-10-15 00:00:00 7.2 21 Sudoeste 31 Sudoeste 0 -- -- 85
2019-10-14 23:00:00 7.4 17 Sudoeste 26 Sudoeste 0 -- -- 90
2019-10-14 22:00:00 7.6 15 Sudoeste 26 Sudoeste 0 -- -- 89
2019-10-14 21:00:00 8.7 23 Sudoeste 44 Sudoeste 0.2 -- -- 83
2019-10-14 20:00:00 8.8 17 Sudoeste 29 Sudoeste 0 -- -- 87
2019-10-14 19:00:00 9.3 11 Sudoeste 48 Oeste 0.6 -- -- 86
2019-10-14 18:00:00 9.8 25 Sudoeste 42 Sudoeste 0.4 -- -- 86
2019-10-14 17:00:00 9.9 19 Sur 46 Sudoeste 1.4 -- -- 88
2019-10-14 16:00:00 10.9 30 Sudoeste 52 Sudoeste 1.2 -- -- 89
2019-10-14 15:00:00 13.2 30 Sudoeste 53 Sudoeste 0 -- -- 76
2019-10-14 14:00:00 15.7 37 Sudoeste 55 Sudoeste 0 -- -- 56
2019-10-14 13:00:00 15.7 36 Sur 51 Sur 0.2 -- -- 59
2019-10-14 12:00:00 13.5 18 Sur 29 Sudoeste 0 -- -- 79
2019-10-14 11:00:00 12 21 Sudoeste 41 Sudoeste 0 -- -- 86
2019-10-14 10:00:00 10.7 36 Sudoeste 55 Sudoeste 0.4 -- -- 90
2019-10-14 09:00:00 15.2 23 Sur 41 Sur 0 -- -- 68
2019-10-14 08:00:00 13.6 26 Sudoeste 43 Sudoeste 0 -- -- 78
2019-10-14 07:00:00 14.4 16 Sudoeste 22 Sudoeste 0 -- -- 65
2019-10-14 06:00:00 14.6 10 Sur 18 Sudeste 0 -- -- 62
2019-10-14 05:00:00 15.3 15 Sudeste 18 Sudeste 0 -- -- 62
2019-10-14 04:00:00 16.5 8 Sur 17 Sudeste 0 -- -- 59
2019-10-14 03:00:00 16.6 12 Sudeste 19 Sur 0 -- -- 59
2019-10-14 02:00:00 17.1 14 Sudeste 21 Sudeste 0 -- -- 57
2019-10-14 01:00:00 14.2 13 Sudeste 17 Sudeste 0 -- -- 61
2019-10-14 00:00:00 13 4 Sudeste 11 Sur 0 -- -- 62
2019-10-13 23:00:00 14.4 5 Sur 15 Sudeste 0 -- -- 57
2019-10-13 22:00:00 15.6 10 Sudeste 23 Sudeste 0 -- -- 52
2019-10-13 21:00:00 18 19 Sur 35 Sur 0 -- -- 45
2019-10-13 20:00:00 20.2 22 Sur 35 Sur 0 -- -- 41
2019-10-13 19:00:00 22.1 16 Sudoeste 32 Sudoeste 0 -- -- 41
2019-10-13 18:00:00 23.4 25 Sudoeste 37 Sudoeste 0 -- -- 37
2019-10-13 17:00:00 24 27 Sudoeste 40 Sudoeste 0 -- -- 35
2019-10-13 16:00:00 24.1 21 Sudoeste 40 Sudoeste 0 -- -- 35
2019-10-13 15:00:00 23.1 20 Sudoeste 35 Sudoeste 0 -- -- 38
2019-10-13 14:00:00 21.6 16 Sudoeste 30 Sudoeste 0 -- -- 46
2019-10-13 13:00:00 20.4 20 Sudoeste 32 Sudoeste 0 -- -- 52
2019-10-13 12:00:00 18.8 15 Sudoeste 29 Sudoeste 0 -- -- 60
2019-10-13 11:00:00 16.9 18 Sur 28 Sur 0 -- -- 68
2019-10-13 10:00:00 14.8 17 Sudoeste 25 Sudoeste 0 -- -- 79
2019-10-13 09:00:00 12.8 13 Sur 26 Sudoeste 0 -- -- 88
2019-10-13 08:00:00 12.5 3 Sudeste 21 Sudoeste 0 -- -- 87
2019-10-13 07:00:00 13.3 12 Sur 26 Sur 0 -- -- 86
2019-10-13 06:00:00 13.8 19 Sudoeste 26 Sur 0 -- -- 84
2019-10-13 05:00:00 15.6 19 Sur 31 Sudeste 0 -- -- 70
2019-10-13 04:00:00 16.2 19 Sur 39 Sudeste 0 -- -- 60
2019-10-13 03:00:00 17.3 28 Sudeste 36 Sudeste 0 -- -- 56
2019-10-13 02:00:00 16.4 23 Sudeste 28 Sudeste 0 -- -- 58
2019-10-13 01:00:00 17 20 Sudeste 24 Sudeste 0 -- -- 55
2019-10-13 00:00:00 16.9 11 Sur 31 Sudeste 0 -- -- 55
2019-10-12 23:00:00 19.9 21 Sudeste 33 Sudeste 0 -- -- 44
2019-10-12 22:00:00 19 18 Sudeste 24 Sudeste 0 -- -- 45
2019-10-12 21:00:00 19.6 16 Sudeste 24 Sudeste 0 -- -- 44
2019-10-12 20:00:00 23 21 Sudeste 39 Sur 0 -- -- 36
2019-10-12 19:00:00 25.7 26 Sur 49 Sur 0 -- -- 30
2019-10-12 18:00:00 27 36 Sur 49 Sur 0 -- -- 27
2019-10-12 17:00:00 28.5 31 Sur 50 Sur 0 -- -- 26
2019-10-12 16:00:00 28.3 27 Sur 45 Sur 0 -- -- 26
2019-10-12 15:00:00 26.1 28 Sur 46 Sur 0 -- -- 30
2019-10-12 14:00:00 26.1 31 Sur 47 Sur 0 -- -- 30
2019-10-12 13:00:00 24.9 12 Sudoeste 35 Sur 0 -- -- 35
2019-10-12 12:00:00 24.4 8 Sudoeste 14 Sudoeste 0 -- -- 36
2019-10-12 11:00:00 21.8 5 Este 8 Este 0 -- -- 47
2019-10-12 10:00:00 19.4 4 Este 9 Este 0 -- -- 58
2019-10-12 09:00:00 16.2 0 Calma 12 Oeste 0 -- -- 68
2019-10-12 08:00:00 16.9 4 Sur 13 Sur 0 -- -- 64
2019-10-12 07:00:00 17.7 11 Sur 17 Sur 0 -- -- 62
2019-10-12 06:00:00 18.1 10 Sudoeste 21 Sur 0 -- -- 61
2019-10-12 05:00:00 18.9 14 Sur 22 Sur 0 -- -- 57
2019-10-12 04:00:00 19.4 13 Sudoeste 21 Sur 0 -- -- 53
2019-10-12 03:00:00 18.5 8 Sudeste 14 Sudeste 0 -- -- 59
2019-10-12 02:00:00 18.3 9 Sudeste 12 Sudeste 0 -- -- 58
2019-10-12 01:00:00 15.9 4 Sur 9 Sudeste 0 -- -- 65
2019-10-12 00:00:00 15.7 4 Sudeste 9 Sudoeste 0 -- -- 65
2019-10-11 23:00:00 17.6 9 Sudoeste 14 Sur 0 -- -- 59
2019-10-11 22:00:00 20.9 11 Sur 22 Sur 0 -- -- 50
2019-10-11 21:00:00 21 9 Sudoeste 27 Sur 0 -- -- 49
2019-10-11 20:00:00 23.8 18 Sudoeste 31 Sudoeste 0 -- -- 43
2019-10-11 19:00:00 26.5 17 Sudoeste 26 Sudoeste 0 -- -- 38
2019-10-11 18:00:00 27.4 14 Sudoeste 19 Sudoeste 0 -- -- 35
2019-10-11 17:00:00 28 9 Sudoeste 23 Sudoeste 0 -- -- 34
2019-10-11 16:00:00 28.8 16 Sudoeste 27 Sudoeste 0 -- -- 32
2019-10-11 15:00:00 29.9 3 Este 15 Sudoeste 0 -- -- 31
2019-10-11 14:00:00 28.3 6 Sudeste 18 Sur 0 -- -- 33
2019-10-11 13:00:00 27.9 4 Sudeste 8 Norte 0 -- -- 34
2019-10-11 12:00:00 25.4 2 Sudoeste 7 Sur 0 -- -- 40
2019-10-11 11:00:00 20.8 2 Sudoeste 4 Sudoeste 0 -- -- 46
2019-10-11 10:00:00 16.8 0 Calma 3 Este 0 -- -- 50
2019-10-11 09:00:00 9.1 0 Calma 3 Sudeste 0 -- -- 74
2019-10-11 08:00:00 7.7 0 Calma 2 Noroeste 0 -- -- 78
2019-10-11 07:00:00 7.8 2 Noroeste 8 Oeste 0 -- -- 76
2019-10-11 06:00:00 9.5 6 Sudeste 8 Sudeste 0 -- -- 69
2019-10-11 05:00:00 8.4 0 Calma 8 Sur 0 -- -- 74
2019-10-11 04:00:00 8.9 4 Sur 6 Sur 0 -- -- 72
2019-10-11 03:00:00 8.6 2 Norte 5 Noroeste 0 -- -- 70
2019-10-11 02:00:00 9.8 0 Calma 4 Sur 0 -- -- 69
2019-10-11 01:00:00 10.2 0 Calma 5 Sur 0 -- -- 69
2019-10-11 00:00:00 11.1 3 Sur -- -- 0 -- -- 66
2019-10-10 23:00:00 12.4 3 Sur 4 Sudeste 0 -- -- 59
2019-10-10 22:00:00 13.5 0 Calma 3 Sudoeste 0 -- -- 54
2019-10-10 21:00:00 15.8 3 Oeste 7 Noroeste 0 -- -- 48
2019-10-10 20:00:00 18.7 6 Noroeste 11 Noroeste 0 -- -- 42
2019-10-10 19:00:00 25.2 5 Noroeste 13 Oeste 0 -- -- 31
2019-10-10 18:00:00 26 4 Noroeste 11 Noroeste 0 -- -- 29
2019-10-10 17:00:00 25.8 5 Nordeste 16 Nordeste 0 -- -- 28
2019-10-10 16:00:00 24.6 5 Nordeste 20 Norte 0 -- -- 31
2019-10-10 15:00:00 22.7 10 Norte 19 Norte 0 -- -- 37
2019-10-10 14:00:00 20.5 11 Norte 16 Norte 0 -- -- 41
2019-10-10 13:00:00 18.4 8 Norte 15 Nordeste 0 -- -- 49
2019-10-10 12:00:00 15.9 6 Norte 13 Norte 0 -- -- 59
2019-10-10 11:00:00 13.1 7 Nordeste 12 Nordeste 0 -- -- 67
2019-10-10 10:00:00 10.1 6 Nordeste 10 Nordeste 0 -- -- 79
2019-10-10 09:00:00 6.7 6 Norte 9 Norte 0 -- -- 89
2019-10-10 08:00:00 5.2 2 Nordeste 6 Norte 0 -- -- 93
2019-10-10 07:00:00 5 3 Norte 4 Noroeste 0 -- -- 91
2019-10-10 06:00:00 6.1 2 Nordeste 4 Nordeste 0 -- -- 89
2019-10-10 05:00:00 6.6 4 Norte 8 Norte 0 -- -- 85
2019-10-10 04:00:00 8 6 Norte 11 Norte 0 -- -- 82
2019-10-10 03:00:00 8.5 4 Este 11 Nordeste 0 -- -- 79
2019-10-10 02:00:00 11.1 8 Nordeste 13 Nordeste 0 -- -- 72
2019-10-10 01:00:00 10.8 4 Norte 9 Nordeste 0 -- -- 72
2019-10-10 00:00:00 12.1 6 Nordeste 21 Nordeste 0 -- -- 66
2019-10-09 23:00:00 14 12 Nordeste 15 Nordeste 0 -- -- 58
2019-10-09 22:00:00 15.4 10 Norte 13 Norte 0 -- -- 51
2019-10-09 21:00:00 15.6 5 Norte 14 Norte 0 -- -- 47
2019-10-09 20:00:00 17.8 10 Noroeste 13 Noroeste 0 -- -- 38
2019-10-09 19:00:00 22.7 10 Noroeste 19 Noroeste 0 -- -- 28
2019-10-09 18:00:00 23.6 9 Noroeste 18 Noroeste 0 -- -- 30
2019-10-09 17:00:00 23.9 10 Noroeste 19 Noroeste 0 -- -- 30
2019-10-09 16:00:00 23.1 11 Noroeste 21 Noroeste 0 -- -- 35
2019-10-09 15:00:00 22.8 7 Norte 19 Noroeste 0 -- -- 39
2019-10-09 14:00:00 22 8 Oeste 18 Oeste 0 -- -- 44
2019-10-09 13:00:00 21 6 Oeste 16 Noroeste 0 -- -- 51
2019-10-09 12:00:00 19.3 7 Norte 15 Norte 0 -- -- 54
2019-10-09 11:00:00 16.2 6 Noroeste 14 Noroeste 0 -- -- 63
2019-10-09 10:00:00 13.9 14 Noroeste 20 Oeste 0 -- -- 69
2019-10-09 09:00:00 13.2 10 Oeste 13 Noroeste 0 -- -- 80
2019-10-09 08:00:00 14.3 6 Noroeste 19 Noroeste 0 -- -- 78
2019-10-09 07:00:00 15.1 12 Noroeste 18 Noroeste 0 -- -- 82
2019-10-09 06:00:00 14.6 9 Sudoeste 15 Oeste 0 -- -- 86
2019-10-09 05:00:00 13.5 14 Sudoeste 17 Sudoeste 0 -- -- 88
2019-10-09 04:00:00 13.6 13 Sudoeste 14 Sudoeste 0 -- -- 85
2019-10-09 03:00:00 14.3 11 Oeste 21 Sudoeste 0 -- -- 80
2019-10-09 02:00:00 15.5 12 Sudoeste 17 Sudoeste 0 -- -- 73
2019-10-09 01:00:00 16.8 13 Sudoeste 19 Sur 0 -- -- 66
2019-10-09 00:00:00 17.5 11 Sur 13 Sur 0 -- -- 63
2019-10-08 23:00:00 17.7 8 Oeste 15 Oeste 0 -- -- 62
2019-10-08 22:00:00 20.1 13 Oeste 18 Oeste 0 -- -- 54
2019-10-08 21:00:00 20.9 14 Oeste 17 Oeste 0 -- -- 49
2019-10-08 20:00:00 24.2 14 Oeste 23 Oeste 0 -- -- 41
2019-10-08 19:00:00 28.2 13 Oeste 24 Oeste 0 -- -- 34
2019-10-08 18:00:00 29.3 16 Oeste 26 Sudoeste 0 -- -- 29
2019-10-08 17:00:00 29.3 16 Sudoeste 30 Oeste 0 -- -- 28
2019-10-08 16:00:00 29 17 Sudoeste 29 Sudoeste 0 -- -- 29
2019-10-08 15:00:00 28.3 13 Sudoeste 25 Sudoeste 0 -- -- 29
2019-10-08 14:00:00 27.3 12 Sudoeste 21 Sudoeste 0 -- -- 29
2019-10-08 13:00:00 25.9 6 Sur 13 Sur 0 -- -- 28
2019-10-08 12:00:00 23.3 6 Oeste 14 Sudoeste 0 -- -- 37
2019-10-08 11:00:00 20.1 10 Sudoeste 17 Oeste 0 -- -- 37
2019-10-08 10:00:00 15.5 9 Sudoeste 12 Sudoeste 0 -- -- 56
2019-10-08 09:00:00 11.5 3 Sudoeste 7 Sudeste 0 -- -- 67
2019-10-08 08:00:00 9.7 5 Sur 6 Sur 0 -- -- 69
2019-10-08 07:00:00 9.5 2 Sur 9 Sudeste 0 -- -- 68
2019-10-08 06:00:00 8.7 4 Sudoeste 6 Este 0 -- -- 76
2019-10-08 05:00:00 9.5 3 Sur 5 Sur 0 -- -- 70
2019-10-08 04:00:00 9.6 5 Oeste 6 Oeste -- -- -- 69
2019-10-08 03:00:00 11.7 3 Sur 6 Sudeste 0 -- -- 60
2019-10-08 02:00:00 12.8 0 Calma 9 Sur 0 -- -- 59
2019-10-08 01:00:00 14.4 7 Sur 18 Sudeste 0 -- -- 52
2019-10-08 00:00:00 14.9 6 Sudeste 10 Sudeste 0 -- -- 52
2019-10-07 23:00:00 15 6 Sur 13 Sudeste 0 -- -- 53
2019-10-07 22:00:00 15.8 2 Sur 9 Sur 0 -- -- 51
2019-10-07 21:00:00 18.6 0 Calma 7 Norte 0 -- -- 42
2019-10-07 20:00:00 22.8 3 Norte 7 Norte 0 -- -- 34
2019-10-07 19:00:00 26.9 3 Norte 12 Norte 0 -- -- 26
2019-10-07 18:00:00 27.8 4 Noroeste 13 Oeste 0 -- -- 25
2019-10-07 17:00:00 28 7 Oeste 15 Noroeste 0 -- -- 24
2019-10-07 16:00:00 27.3 9 Oeste 14 Oeste 0 -- -- 22
2019-10-07 15:00:00 25.7 4 Norte 16 Noroeste 0 -- -- 27
2019-10-07 14:00:00 24.1 3 Noroeste 11 Nordeste 0 -- -- 31
2019-10-07 13:00:00 22.5 4 Nordeste 10 Norte 0 -- -- 42
2019-10-07 12:00:00 20 3 Este 9 Nordeste 0 -- -- 51
2019-10-07 11:00:00 16.4 3 Norte 7 Norte 0 -- -- 61
2019-10-07 10:00:00 14.7 2 Sur 5 Sur 0 -- -- 64
2019-10-07 09:00:00 9.9 3 Oeste 5 Sur 0 -- -- 78
2019-10-07 08:00:00 7.4 2 Sur 6 Sudeste 0 -- -- 84
2019-10-07 07:00:00 7.6 2 Noroeste 3 Noroeste 0 -- -- 83
2019-10-07 06:00:00 8.1 2 Oeste 4 Sudoeste 0 -- -- 80
2019-10-07 05:00:00 8.7 4 Sudoeste 9 Oeste 0 -- -- 77
2019-10-07 04:00:00 9.7 6 Sudoeste 12 Sudoeste 0 -- -- 74
2019-10-07 03:00:00 11.1 10 Sudoeste 12 Oeste 0 -- -- 68
2019-10-07 02:00:00 13.1 10 Sudoeste 22 Sudoeste 0 -- -- 60
2019-10-07 01:00:00 14.1 15 Sudoeste 17 Sudoeste 0 -- -- 58
2019-10-07 00:00:00 12.7 7 Sudoeste 12 Sudoeste 0 -- -- 64
2019-10-06 23:00:00 12.9 8 Sudoeste 9 Sudoeste 0 -- -- 65
2019-10-06 22:00:00 14.3 4 Sur 6 Sur 0 -- -- 58
2019-10-06 21:00:00 17.4 3 Norte 10 Noroeste 0 -- -- 47
2019-10-06 20:00:00 19.2 10 Noroeste 14 Oeste 0 -- -- 43
2019-10-06 19:00:00 24.8 13 Oeste 22 Oeste 0 -- -- 31
2019-10-06 18:00:00 25.8 13 Oeste 20 Oeste 0 -- -- 32
2019-10-06 17:00:00 25.7 8 Oeste 17 Sudoeste 0 -- -- 32
2019-10-06 16:00:00 24.9 6 Oeste 15 Oeste 0 -- -- 36
2019-10-06 15:00:00 24 8 Oeste 16 Oeste 0 -- -- 40
2019-10-06 14:00:00 21.4 5 Sudoeste 13 Oeste 0 -- -- 50
2019-10-06 13:00:00 19.6 6 Noroeste 19 Oeste 0 -- -- 57
2019-10-06 12:00:00 17.1 7 Noroeste 15 Oeste 0 -- -- 64
2019-10-06 11:00:00 16.3 10 Oeste 16 Oeste 0 -- -- 64
2019-10-06 10:00:00 13.5 12 Oeste 17 Sur 0 -- -- 75
2019-10-06 09:00:00 11 15 Sur 25 Sudoeste 0 -- -- 82
2019-10-06 08:00:00 8.8 15 Sudoeste 18 Sudoeste 0 -- -- 86
2019-10-06 07:00:00 9 11 Sudoeste 17 Sudoeste 0 -- -- 84
2019-10-06 06:00:00 10.2 13 Sudoeste 17 Sur 0 -- -- 78
2019-10-06 05:00:00 10 9 Sudoeste 23 Sudoeste 0 -- -- 77
2019-10-06 04:00:00 10.6 11 Sudoeste 14 Sudoeste 0 -- -- 75
2019-10-06 03:00:00 10.5 5 Sudoeste 14 Sur 0 -- -- 75
2019-10-06 02:00:00 11.8 11 Sur 16 Sur 0 -- -- 69
2019-10-06 01:00:00 11.9 14 Sur 17 Sur 0 -- -- 69
2019-10-06 00:00:00 11.2 6 Sur 13 Sur 0 -- -- 68
2019-10-05 23:00:00 12.7 4 Sur 8 Sudoeste 0 -- -- 62
2019-10-05 22:00:00 15.2 6 Sudoeste 12 Oeste 0 -- -- 54
2019-10-05 21:00:00 17.9 11 Oeste 18 Oeste 0 -- -- 46
2019-10-05 20:00:00 20.7 11 Sudoeste 13 Oeste 0 -- -- 43
2019-10-05 19:00:00 25.5 10 Sudoeste 15 Sudoeste 0 -- -- 37
2019-10-05 18:00:00 26.3 9 Oeste 22 Sudoeste 0 -- -- 36
2019-10-05 17:00:00 26.1 11 Oeste 24 Oeste 0 -- -- 35
2019-10-05 16:00:00 24.8 11 Oeste 22 Oeste 0 -- -- 40
2019-10-05 15:00:00 24.5 7 Sudoeste 15 Oeste 0 -- -- 42
2019-10-05 14:00:00 23.8 5 Noroeste 12 Oeste 0 -- -- 47
2019-10-05 13:00:00 22.4 5 Oeste 10 Noroeste 0 -- -- 52
2019-10-05 12:00:00 20.4 4 Oeste 8 Oeste 0 -- -- 59
2019-10-05 11:00:00 17.6 2 Noroeste 10 Oeste 0 -- -- 66
2019-10-05 10:00:00 13.4 8 Sudoeste 12 Sudoeste 0 -- -- 82
2019-10-05 09:00:00 10.1 4 Sur 5 Sudoeste 0 -- -- 89
2019-10-05 08:00:00 8.4 0 Calma 13 Sudoeste 0 -- -- 94
2019-10-05 07:00:00 9.6 10 Sudoeste 13 Sudoeste 0 -- -- 92
2019-10-05 06:00:00 10.2 13 Sudoeste 15 Sudoeste 0 -- -- 90
2019-10-05 05:00:00 9.4 8 Sudoeste 14 Sudoeste 0 -- -- 90
2019-10-05 04:00:00 10.2 5 Sudoeste 8 Sur 0 -- -- 86
2019-10-05 03:00:00 10.2 5 Sur 9 Sur 0 -- -- 85
2019-10-05 02:00:00 11.2 7 Sur 11 Sur 0 -- -- 81
2019-10-05 01:00:00 11.9 9 Sur 10 Sur 0 -- -- 79
2019-10-05 00:00:00 12.3 6 Sur 7 Sur 0 -- -- 78
2019-10-04 23:00:00 13.3 2 Sur 5 Oeste 0 -- -- 73
2019-10-04 22:00:00 14.2 5 Oeste 6 Oeste 0 -- -- 76
2019-10-04 21:00:00 16.6 3 Sudoeste 6 Oeste 0 -- -- 68
2019-10-04 20:00:00 20.4 4 Sudoeste 19 Sudoeste 0 -- -- 56
2019-10-04 19:00:00 23.8 11 Sudoeste 23 Sudoeste 0 -- -- 47
2019-10-04 18:00:00 24.4 11 Sudoeste 22 Sur 0 -- -- 47
2019-10-04 17:00:00 23.4 13 Sudoeste 27 Sudoeste 0 -- -- 51
2019-10-04 16:00:00 22.8 13 Sudoeste 27 Sudoeste 0 -- -- 55
2019-10-04 15:00:00 21.1 11 Oeste 23 Sudoeste 0 -- -- 62
2019-10-04 14:00:00 18 15 Sudoeste 26 Oeste 0 -- -- 75
2019-10-04 13:00:00 17.4 12 Sudoeste 18 Sudoeste 0 -- -- 79
2019-10-04 12:00:00 17.3 6 Sur 13 Sudoeste 0 -- -- 79
2019-10-04 11:00:00 15.7 10 Oeste 16 Oeste 0 -- -- 85
2019-10-04 10:00:00 14.1 9 Sudoeste 15 Sudoeste 0 -- -- 84
2019-10-04 09:00:00 11.8 8 Sudoeste 10 Sudoeste 0 -- -- 86
2019-10-04 08:00:00 10.6 9 Sudoeste 17 Sudoeste 0 -- -- 90
2019-10-04 07:00:00 11 13 Sudoeste 15 Sudoeste 0 -- -- 89
2019-10-04 06:00:00 12.1 7 Sudoeste 17 Sur 0 -- -- 84
2019-10-04 05:00:00 11.7 9 Sur 17 Sur 0 -- -- 80
2019-10-04 04:00:00 12.6 12 Sur 19 Sur 0 -- -- 75
2019-10-04 03:00:00 13 14 Sudoeste 18 Sudoeste 0 -- -- 66
2019-10-04 02:00:00 13 10 Sur 15 Sudoeste 0 -- -- 63
2019-10-04 01:00:00 13.1 12 Sudoeste 17 Sudoeste 0 -- -- 61
2019-10-04 00:00:00 13.4 9 Sudoeste 14 Sudoeste 0 -- -- 57
2019-10-03 23:00:00 13.6 10 Oeste 13 Sudoeste 0 -- -- 55
2019-10-03 22:00:00 15 6 Sur 12 Sur 0 -- -- 48
2019-10-03 21:00:00 16.8 7 Sudoeste 9 Sudoeste 0 -- -- 49
2019-10-03 20:00:00 21.2 7 Sudoeste 10 Oeste 0 -- -- 36
2019-10-03 19:00:00 25.4 11 Oeste 20 Noroeste 0 -- -- 27
2019-10-03 18:00:00 26.7 13 Oeste 20 Oeste 0 -- -- 25
2019-10-03 17:00:00 26.3 10 Oeste 24 Noroeste 0 -- -- 28
2019-10-03 16:00:00 24.7 12 Oeste 24 Oeste 0 -- -- 30
2019-10-03 15:00:00 23.3 11 Sudoeste 26 Oeste 0 -- -- 33
2019-10-03 14:00:00 22.5 14 Oeste 24 Oeste 0 -- -- 36
2019-10-03 13:00:00 20.8 7 Oeste 14 Sudoeste 0 -- -- 42
2019-10-03 12:00:00 18.6 6 Oeste 12 Oeste 0 -- -- 47
2019-10-03 11:00:00 15.3 7 Sudoeste 13 Sur 0 -- -- 56
2019-10-03 10:00:00 11.8 5 Sur 9 Sudoeste 0 -- -- 67
2019-10-03 09:00:00 8 0 Calma 6 Sur 0 -- -- 81
2019-10-03 08:00:00 6.1 3 Sudoeste 7 Sudoeste 0 -- -- 89
2019-10-03 07:00:00 5.6 6 Sudoeste 7 Sudoeste 0 -- -- 91
2019-10-03 06:00:00 5.9 0 Calma 4 Sur 0 -- -- 87
2019-10-03 05:00:00 6.9 0 Calma 6 Norte 0 -- -- 83
2019-10-03 04:00:00 7.2 3 Noroeste 5 Nordeste 0 -- -- 84
2019-10-03 03:00:00 9.2 3 Norte 6 Nordeste 0 -- -- 74
2019-10-03 02:00:00 8.4 0 Calma 5 Nordeste 0 -- -- 78
2019-10-03 01:00:00 10.6 8 Nordeste 26 Nordeste 0 -- -- 68
2019-10-03 00:00:00 10.5 4 Sur 7 Sudeste 0 -- -- 69
2019-10-02 23:00:00 11.6 3 Sur 10 Sudeste 0 -- -- 64
2019-10-02 22:00:00 12.4 5 Sudoeste 8 Sur 0 -- -- 63
2019-10-02 21:00:00 14.8 6 Sur 10 Sur 0 -- -- 53
2019-10-02 20:00:00 17.8 8 Sur 10 Sudeste 0 -- -- 45
2019-10-02 19:00:00 21.5 4 Sur 12 Este 0 -- -- 37
2019-10-02 18:00:00 20.9 7 Sur 17 Oeste 0 -- -- 38
2019-10-02 17:00:00 22.6 5 Oeste 14 Norte 0 -- -- 36
2019-10-02 16:00:00 21.1 10 Noroeste 21 Nordeste 0 -- -- 37
2019-10-02 15:00:00 19 10 Nordeste 20 Nordeste 0 -- -- 42
2019-10-02 14:00:00 19 4 Norte 18 Nordeste 0 -- -- 45
2019-10-02 13:00:00 17.7 6 Noroeste 16 Oeste 0 -- -- 50
2019-10-02 12:00:00 16.4 7 Oeste 17 Oeste 0 -- -- 56
2019-10-02 11:00:00 14.4 9 Oeste 21 Sudoeste 0 -- -- 66
2019-10-02 10:00:00 11.7 16 Sudoeste 21 Sudoeste 0 -- -- 83
2019-10-02 09:00:00 9.2 12 Sudoeste 17 Sudoeste 0 -- -- 93
2019-10-02 08:00:00 8.2 11 Sudoeste 17 Sudoeste 0 -- -- 95
2019-10-02 07:00:00 8.4 12 Sudoeste 14 Sur 0 -- -- 95
2019-10-02 06:00:00 8.8 6 Sudoeste 15 Sudoeste 0 -- -- 93
2019-10-02 05:00:00 9.7 14 Sudoeste 21 Sudoeste 0 -- -- 89
2019-10-02 04:00:00 11 15 Sudoeste 25 Sudoeste 0 -- -- 83
2019-10-02 03:00:00 11.8 15 Sudoeste 21 Sudoeste 0 -- -- 81
2019-10-02 02:00:00 12 10 Sudoeste 35 Oeste 0 -- -- 77
2019-10-02 01:00:00 14.3 23 Oeste 28 Oeste 0 -- -- 69
2019-10-02 00:00:00 14.2 13 Sudoeste 24 Sudoeste 0 -- -- 66
2019-10-01 23:00:00 16.3 17 Sudoeste 22 Sudoeste 0 -- -- 57
2019-10-01 22:00:00 16.4 15 Sudoeste 23 Sudoeste 0 -- -- 57
2019-10-01 21:00:00 17.6 17 Sudoeste 21 Sudoeste 0 -- -- 53
2019-10-01 20:00:00 20.1 18 Sudoeste 35 Sudoeste 0 -- -- 47
2019-10-01 19:00:00 22.5 24 Sudoeste 36 Oeste 0 -- -- 40
2019-10-01 18:00:00 23.2 25 Oeste 36 Sudoeste 0 -- -- 38
2019-10-01 17:00:00 22.8 21 Sudoeste 37 Sudoeste 0 -- -- 43
2019-10-01 16:00:00 21.8 24 Sudoeste 40 Sudoeste 0 -- -- 48
2019-10-01 15:00:00 21.9 24 Sudoeste 40 Oeste 0 -- -- 52
2019-10-01 14:00:00 21.3 27 Sudoeste 40 Sudoeste 0 -- -- 54
2019-10-01 13:00:00 21.4 21 Oeste 39 Oeste 0 -- -- 54
2019-10-01 12:00:00 19.1 24 Sudoeste 32 Sudoeste 0 -- -- 62
2019-10-01 11:00:00 17.1 18 Sudoeste 31 Sudoeste 0 -- -- 73
2019-10-01 10:00:00 15.6 24 Sudoeste 31 Sudoeste 0 -- -- 81
2019-10-01 09:00:00 14.8 18 Sudoeste 25 Sudoeste 0 -- -- 88
2019-10-01 08:00:00 13.2 15 Sudoeste 19 Sudoeste 0 -- -- 94
2019-10-01 07:00:00 13.8 6 Sudoeste 22 Sudoeste 0 -- -- 90
2019-10-01 06:00:00 13.8 13 Sudoeste 18 Sudoeste 0 -- -- 76
2019-10-01 05:00:00 15 11 Sur 19 Sur 0 -- -- 68
2019-10-01 04:00:00 14.8 13 Sudoeste 20 Sudoeste 0 -- -- 64
2019-10-01 03:00:00 14.7 11 Sudoeste 15 Sudoeste 0 -- -- 62
2019-10-01 02:00:00 15.2 12 Sudoeste 21 Sur 0 -- -- 55
2019-10-01 01:00:00 15.3 11 Sudoeste 15 Sudoeste 0 -- -- 49
2019-10-01 00:00:00 16.2 9 Sudoeste 15 Sudoeste 0 -- -- 47
2019-09-30 23:00:00 17.3 12 Sudoeste 20 Sudoeste 0 -- -- 47
2019-09-30 22:00:00 20 14 Sudoeste 22 Sudoeste 0 -- -- 41
2019-09-30 21:00:00 21.3 14 Sur 18 Sur 0 -- -- 44
2019-09-30 20:00:00 24.2 7 Sudoeste 19 Sudoeste 0 -- -- 36
2019-09-30 19:00:00 28 15 Sudoeste 23 Sudoeste 0 -- -- 28
2019-09-30 18:00:00 28.6 17 Sudoeste 27 Sudoeste 0 -- -- 28
2019-09-30 17:00:00 28.7 13 Sudoeste 37 Sur 0 -- -- 28
2019-09-30 16:00:00 29.3 6 Sudoeste 23 Sudoeste 0 -- -- 30
2019-09-30 15:00:00 27.1 12 Sudoeste 21 Sudoeste 0 -- -- 32
2019-09-30 14:00:00 27.5 3 Nordeste 12 Sudeste 0 -- -- 38
2019-09-30 13:00:00 24.3 5 Nordeste 11 Sudeste 0 -- -- 48
2019-09-30 12:00:00 22.8 4 Nordeste 9 Nordeste 0 -- -- 53
2019-09-30 11:00:00 20.1 4 Sudeste 9 Sur 0 -- -- 62
2019-09-30 10:00:00 16.5 6 Sudeste 9 Sudeste 0 -- -- 66
2019-09-30 09:00:00 12 6 Sudeste 8 Sudeste 0 -- -- 78
2019-09-30 08:00:00 9.4 4 Sudeste 6 Sudeste 0 -- -- 86
2019-09-30 07:00:00 9.9 3 Sudeste 4 Sur 0 -- -- 84
2019-09-30 06:00:00 10.8 0 Calma 9 Sur 0 -- -- 79
2019-09-30 05:00:00 11.6 3 Sur 8 Sudoeste 0 -- -- 75
2019-09-30 04:00:00 11.9 6 Sudoeste 8 Sudoeste 0 -- -- 78
2019-09-30 03:00:00 12.5 5 Sudoeste 10 Sur 0 -- -- 75
2019-09-30 02:00:00 13.2 6 Sudoeste 12 Sur 0 -- -- 69
2019-09-30 01:00:00 13.2 8 Sur 11 Sudeste 0 -- -- 66
2019-09-30 00:00:00 13.7 4 Sudoeste 6 Sur 0 -- -- 65
2019-09-29 23:00:00 15.3 5 Sudoeste 10 Sudoeste 0 -- -- 59
2019-09-29 22:00:00 16.5 9 Sudoeste 13 Sudoeste 0 -- -- 55
2019-09-29 21:00:00 20 10 Sudoeste 12 Sudoeste 0 -- -- 43
2019-09-29 20:00:00 23.3 10 Sudoeste 20 Sudoeste 0 -- -- 34
2019-09-29 19:00:00 27.3 14 Sudoeste 37 Sudoeste 0 -- -- 25
2019-09-29 18:00:00 27.7 18 Sudoeste 30 Sudoeste 0 -- -- 20
2019-09-29 17:00:00 28.3 17 Sudoeste 30 Sudoeste 0 -- -- 17
2019-09-29 16:00:00 27.5 19 Sudoeste 30 Sudoeste 0 -- -- 16
2019-09-29 15:00:00 26.8 20 Sudoeste 34 Sudoeste 0 -- -- 23
2019-09-29 14:00:00 26 20 Sudoeste 33 Sudoeste 0 -- -- 32
2019-09-29 13:00:00 23.6 13 Sudoeste 22 Sudoeste 0 -- -- 40
2019-09-29 12:00:00 22.7 10 Oeste 14 Oeste 0 -- -- 44
2019-09-29 11:00:00 19.7 4 Sudoeste 16 Sudoeste 0 -- -- 53
2019-09-29 10:00:00 16.4 5 Sur 14 Sur 0 -- -- 57
2019-09-29 09:00:00 11.8 4 Sur 10 Sudeste 0 -- -- 69
2019-09-29 08:00:00 8.5 7 Sur 10 Sudeste 0 -- -- 80
2019-09-29 07:00:00 8.7 2 Este 5 Este 0 -- -- 79
2019-09-29 06:00:00 10.2 3 Sur 12 Sudoeste 0 -- -- 72
2019-09-29 05:00:00 11.8 11 Sudoeste 18 Sudoeste 0 -- -- 69
2019-09-29 04:00:00 13.1 14 Sudoeste 17 Sur 0 -- -- 63
2019-09-29 03:00:00 12.8 7 Sudoeste 14 Sudoeste 0 -- -- 66
2019-09-29 02:00:00 12.7 7 Sudoeste 10 Sudoeste 0 -- -- 67
2019-09-29 01:00:00 13.2 6 Sur 9 Sudeste 0 -- -- 64
2019-09-29 00:00:00 13.8 2 Sudeste 9 Sudoeste 0 -- -- 63
2019-09-28 23:00:00 13.8 6 Sudoeste 10 Sudoeste 0 -- -- 66
2019-09-28 22:00:00 16.9 5 Sudeste 7 Sudeste 0 -- -- 49
2019-09-28 21:00:00 18.7 0 Calma 6 Este 0 -- -- 43
2019-09-28 20:00:00 25.2 0 Calma 10 Sudoeste 0 -- -- 28
2019-09-28 19:00:00 27.3 4 Sudoeste 15 Sudoeste 0 -- -- 24
2019-09-28 18:00:00 27.4 7 Sudoeste 17 Oeste 0 -- -- 25
2019-09-28 17:00:00 27.9 8 Oeste 19 Noroeste 0 -- -- 25
2019-09-28 16:00:00 27.3 8 Oeste 18 Noroeste 0 -- -- 27
2019-09-28 15:00:00 26.3 7 Oeste 15 Oeste 0 -- -- 33
2019-09-28 14:00:00 24.1 4 Este 10 Este 0 -- -- 40
2019-09-28 13:00:00 21.3 6 Nordeste 13 Nordeste 0 -- -- 53
2019-09-28 12:00:00 19.7 4 Nordeste 14 Este 0 -- -- 58
2019-09-28 11:00:00 17.5 4 Nordeste 9 Este 0 -- -- 67
2019-09-28 10:00:00 14.5 3 Sur 6 Sudeste 0 -- -- 80
2019-09-28 09:00:00 10.9 2 Sudoeste 5 Sudeste 0 -- -- 87
2019-09-28 08:00:00 7.5 2 Sudeste 5 Sudeste 0 -- -- 95
2019-09-28 07:00:00 8.5 4 Sudeste 5 Sudeste 0 -- -- 95
2019-09-28 06:00:00 8.5 3 Este 7 Sudoeste 0 -- -- 95
2019-09-28 05:00:00 9.2 6 Sudoeste 7 Sudoeste 0 -- -- 94
2019-09-28 04:00:00 10.1 5 Sur 8 Sudeste 0 -- -- 91
2019-09-28 03:00:00 10.8 6 Sur 12 Sudoeste 0 -- -- 89
2019-09-28 02:00:00 11.4 5 Sur 8 Sur 0 -- -- 88
2019-09-28 01:00:00 12.4 4 Sur 10 Oeste 0 -- -- 84
2019-09-28 00:00:00 14.5 11 Oeste 13 Oeste 0 -- -- 76
2019-09-27 23:00:00 15 9 Oeste 13 Oeste 0 -- -- 73
2019-09-27 22:00:00 16.3 12 Oeste 14 Oeste 0 -- -- 65
2019-09-27 21:00:00 18.1 10 Oeste 19 Oeste 0 -- -- 57
2019-09-27 20:00:00 22.2 14 Oeste 25 Sudoeste 0 -- -- 43
2019-09-27 19:00:00 24.5 19 Sudoeste 27 Sudoeste 0 -- -- 31
2019-09-27 18:00:00 25.7 17 Oeste 28 Sudoeste 0 -- -- 28
2019-09-27 17:00:00 25.5 17 Sudoeste 44 Sudoeste 0 -- -- 29
2019-09-27 16:00:00 25.2 18 Sudoeste 31 Sudoeste 0 -- -- 27
2019-09-27 15:00:00 24.1 17 Sudoeste 27 Sudoeste 0 -- -- 29
2019-09-27 14:00:00 23 14 Oeste 29 Sudoeste 0 -- -- 32
2019-09-27 13:00:00 21.4 10 Sudoeste 18 Oeste 0 -- -- 38
2019-09-27 12:00:00 20.1 10 Sudoeste 17 Sudoeste 0 -- -- 42
2019-09-27 11:00:00 18.5 10 Oeste 17 Sudoeste 0 -- -- 59
2019-09-27 10:00:00 14.7 12 Sudoeste 15 Sudoeste 0 -- -- 67
2019-09-27 09:00:00 11.5 12 Sudoeste 21 Sudoeste 0 -- -- 76
2019-09-27 08:00:00 10.2 11 Sudoeste 15 Sur 0 -- -- 78
2019-09-27 07:00:00 10.2 11 Sudoeste 19 Sudoeste 0 -- -- 75
2019-09-27 06:00:00 10.7 15 Sudoeste 18 Sudoeste 0 -- -- 72
2019-09-27 05:00:00 11 13 Sudoeste 16 Sudoeste 0 -- -- 69
2019-09-27 04:00:00 12 12 Sudoeste 17 Sudoeste 0 -- -- 67
2019-09-27 03:00:00 11.5 4 Sudoeste 12 Sur 0 -- -- 68
2019-09-27 02:00:00 12.8 6 Sur 16 Sur 0 -- -- 60
2019-09-27 01:00:00 13.4 12 Sur 14 Sur 0 -- -- 58
2019-09-27 00:00:00 13.5 10 Sudoeste 13 Sudoeste 0 -- -- 59
2019-09-26 23:00:00 14.6 7 Sur 12 Sudoeste 0 -- -- 54
2019-09-26 22:00:00 15.8 8 Sudoeste 11 Sudoeste 0 -- -- 52
2019-09-26 21:00:00 17.4 9 Sudoeste 17 Sudoeste 0 -- -- 51
2019-09-26 20:00:00 22.5 11 Sudoeste 23 Sudoeste 0 -- -- 33
2019-09-26 19:00:00 26.1 18 Sudoeste 25 Oeste 0 -- -- 23
2019-09-26 18:00:00 26.6 18 Sudoeste 28 Sudoeste 0 -- -- 23
2019-09-26 17:00:00 26.4 20 Sudoeste 32 Sudoeste 0 -- -- 22
2019-09-26 16:00:00 25.7 22 Sudoeste 33 Sudoeste 0 -- -- 31
2019-09-26 15:00:00 24.7 17 Oeste 26 Sudoeste 0 -- -- 36
2019-09-26 14:00:00 23.3 11 Sudoeste 21 Sudoeste 0 -- -- 45
2019-09-26 13:00:00 21.9 5 Sudoeste 18 Sur 0 -- -- 52
2019-09-26 12:00:00 19.5 6 Sur 12 Sur 0 -- -- 60
2019-09-26 11:00:00 17.9 5 Sur 12 Sudoeste 0 -- -- 64
2019-09-26 10:00:00 15.2 8 Sudoeste 12 Sudoeste 0 -- -- 76
2019-09-26 09:00:00 12.6 3 Sudeste 9 Sudeste 0 -- -- 85
2019-09-26 08:00:00 10.3 5 Sur 9 Sur 0 -- -- 92
2019-09-26 07:00:00 10.7 5 Sur 14 Sudoeste 0 -- -- 91
2019-09-26 06:00:00 11.4 9 Sur 14 Sur 0 -- -- 88
2019-09-26 05:00:00 12.1 11 Sur 19 Sudoeste 0 -- -- 85
2019-09-26 04:00:00 12.2 11 Sur 15 Sur 0 -- -- 85
2019-09-26 03:00:00 12.3 5 Sur 11 Sur 0 -- -- 84
2019-09-26 02:00:00 12.7 8 Sudoeste 13 Sur 0 -- -- 83
2019-09-26 01:00:00 13.2 8 Sur 9 Sur 0 -- -- 81
2019-09-26 00:00:00 13.8 3 Sur 12 Sur 0 -- -- 77
2019-09-25 23:00:00 15 8 Sur 12 Sur 0 -- -- 71
2019-09-25 22:00:00 15.4 5 Sur 8 Sur 0 -- -- 69
2019-09-25 21:00:00 16.7 4 Sudeste -- -- 0 -- -- 63
2019-09-25 20:00:00 19.6 4 Sur 12 Sudoeste 0 -- -- 50
2019-09-25 19:00:00 22.1 4 Oeste 15 Sudoeste 0 -- -- 41
2019-09-25 18:00:00 21 7 Sudoeste 19 Sudoeste 0 -- -- 44
2019-09-25 17:00:00 21.9 8 Sudoeste 21 Sudoeste 0 -- -- 43
2019-09-25 16:00:00 20.8 6 Sudeste 17 Sur 0 -- -- 46
2019-09-25 15:00:00 20.5 5 Sudoeste 14 Sudoeste 0 -- -- 47
2019-09-25 14:00:00 19.4 3 Sur 14 Sudoeste 0 -- -- 51
2019-09-25 13:00:00 18 3 Norte 17 Oeste 0 -- -- 53
2019-09-25 12:00:00 17.6 5 Oeste 14 Noroeste 0 -- -- 58
2019-09-25 11:00:00 14.6 9 Oeste 18 Sudoeste 0 -- -- 72
2019-09-25 10:00:00 12.4 15 Sudoeste 19 Sudoeste 0 -- -- 83
2019-09-25 09:00:00 10.3 10 Sur 13 Sur 0 -- -- 92
2019-09-25 08:00:00 8.9 9 Sudoeste 14 Sudoeste 0 -- -- 95
2019-09-25 07:00:00 9.4 9 Sudoeste 14 Sudoeste 0 -- -- 94
2019-09-25 06:00:00 10.1 12 Sur 15 Sur 0 -- -- 94
2019-09-25 05:00:00 10.6 12 Sudoeste 16 Sudoeste 0 -- -- 92
2019-09-25 04:00:00 10.8 9 Sur 15 Sudoeste 0 -- -- 91
2019-09-25 03:00:00 11.2 11 Sudoeste 18 Oeste 0 -- -- 87
2019-09-25 02:00:00 13 17 Oeste 27 Oeste 0 -- -- 79
2019-09-25 01:00:00 13.6 15 Oeste 21 Oeste 0 -- -- 78
2019-09-25 00:00:00 14.4 11 Oeste 22 Oeste 0 -- -- 79
2019-09-24 23:00:00 15.9 17 Sudoeste 31 Oeste 0 -- -- 79
2019-09-24 22:00:00 17.6 24 Sudoeste 36 Sudoeste 0 -- -- 74
2019-09-24 21:00:00 18.2 18 Sudoeste 35 Sudoeste 0 -- -- 70
2019-09-24 20:00:00 20.7 25 Sudoeste 37 Sudoeste 0 -- -- 61
2019-09-24 19:00:00 21.4 25 Sudoeste 37 Sudoeste 0 -- -- 65
2019-09-24 18:00:00 19.8 21 Sudoeste 35 Oeste 0 -- -- 79
2019-09-24 17:00:00 20.4 25 Sudoeste 43 Sudoeste 0 -- -- 71
2019-09-24 16:00:00 21.8 23 Sudoeste 36 Sudoeste 0 -- -- 63
2019-09-24 15:00:00 21.8 25 Sudoeste 40 Sudoeste 0 -- -- 62
2019-09-24 14:00:00 21.9 27 Sudoeste 41 Sudoeste 0 -- -- 63
2019-09-24 13:00:00 21 24 Sudoeste 35 Sudoeste 0 -- -- 61
2019-09-24 12:00:00 19 15 Sudoeste 24 Sudoeste 0 -- -- 61
2019-09-24 11:00:00 15.7 5 Sudoeste 12 Sudoeste 0 -- -- 76
2019-09-24 10:00:00 14 11 Sudoeste 17 Sur 0 -- -- 82
2019-09-24 09:00:00 13.5 0 Calma 11 Sur 0 -- -- 80
2019-09-24 08:00:00 10.8 8 Sur 16 Sur 0 -- -- 87
2019-09-24 07:00:00 9.7 7 Sur 9 Sur 0 -- -- 90
2019-09-24 06:00:00 10.4 5 Sur 9 Sur 0 -- -- 85
2019-09-24 05:00:00 10.7 5 Sudoeste 10 Sudoeste 0 -- -- 86
2019-09-24 04:00:00 11.5 6 Sudoeste 15 Sur 0 -- -- 83
2019-09-24 03:00:00 13.1 13 Sudoeste 21 Sudoeste 0 -- -- 74
2019-09-24 02:00:00 13.5 16 Sudoeste 24 Sudoeste 0 -- -- 72
2019-09-24 01:00:00 13.9 11 Sur 19 Sur 0 -- -- 72
2019-09-24 00:00:00 14.9 17 Sudoeste 22 Sur 0 -- -- 70
2019-09-23 23:00:00 16.2 15 Sur 22 Sur 0 -- -- 66
2019-09-23 22:00:00 16.4 12 Sur 19 Sur 0 -- -- 64
2019-09-23 21:00:00 17.1 6 Sur 11 Sudoeste 0 -- -- 63
2019-09-23 20:00:00 21.1 7 Sudoeste 12 Oeste 0 -- -- 45
2019-09-23 19:00:00 22.4 10 Oeste 21 Oeste 0 -- -- 39
2019-09-23 18:00:00 22 18 Sudoeste 24 Sudoeste 0 -- -- 37
2019-09-23 17:00:00 21.9 17 Sudoeste 29 Sudoeste 0 -- -- 41
2019-09-23 16:00:00 21.1 13 Sudoeste 25 Oeste 0 -- -- 46
2019-09-23 15:00:00 20.4 10 Sudoeste 27 Sudoeste 0 -- -- 51
2019-09-23 14:00:00 19.4 12 Oeste 20 Sudoeste 0 -- -- 54
2019-09-23 13:00:00 19.1 6 Sur 14 Sudoeste 0 -- -- 59
2019-09-23 12:00:00 17.4 7 Sur 12 Sur 0 -- -- 64
2019-09-23 11:00:00 15.5 10 Sur 14 Sur 0 -- -- 73
2019-09-23 10:00:00 13.9 7 Sur 10 Sudeste 0 -- -- 80
2019-09-23 09:00:00 11.4 6 Sur 8 Sur 0 -- -- 90
2019-09-23 08:00:00 8.7 6 Sur 10 Sur 0 -- -- 95
2019-09-23 07:00:00 9.5 6 Sudoeste 15 Sur 0 -- -- 92
2019-09-23 06:00:00 9.4 10 Sur 13 Sur 0 -- -- 93
2019-09-23 05:00:00 9.3 7 Sur 10 Sudoeste 0 -- -- 92
2019-09-23 04:00:00 10.1 7 Sur 15 Sudoeste 0 -- -- 89
2019-09-23 03:00:00 10.7 9 Sudoeste 14 Sudoeste 0 -- -- 86
2019-09-23 02:00:00 11.1 11 Sur 18 Sur 0 -- -- 83
2019-09-23 01:00:00 10.9 9 Sur 13 Sudoeste 0 -- -- 82
2019-09-23 00:00:00 11.3 8 Sudoeste 11 Sur 0 -- -- 80
2019-09-22 23:00:00 12.2 8 Sur 10 Sudoeste 0 -- -- 77
2019-09-22 22:00:00 12.9 10 Sudoeste 14 Oeste 0 -- -- 72
2019-09-22 21:00:00 14.7 12 Oeste 17 Oeste 0 -- -- 69
2019-09-22 20:00:00 17.3 15 Sudoeste 26 Sudoeste 0 -- -- 58
2019-09-22 19:00:00 18.8 16 Sudoeste 32 Sudoeste 0 -- -- 51
2019-09-22 18:00:00 20.1 16 Sudoeste 32 Sudoeste 0 -- -- 47
2019-09-22 17:00:00 18.4 19 Oeste 34 Sudoeste 0 -- -- 57
2019-09-22 16:00:00 19.3 21 Sudoeste 32 Sudoeste 0 -- -- 52
2019-09-22 15:00:00 18.3 19 Sudoeste 30 Sudoeste 0 -- -- 63
2019-09-22 14:00:00 17.2 15 Sudoeste 27 Oeste 0 -- -- 68
2019-09-22 13:00:00 16 17 Sudoeste 26 Sudoeste 0 -- -- 71
2019-09-22 12:00:00 16.2 15 Sudoeste 25 Sudoeste 0 -- -- 74
2019-09-22 11:00:00 14.9 13 Sudoeste 22 Sudoeste 0 -- -- 77
2019-09-22 10:00:00 14.1 14 Sur 19 Sur 0 -- -- 83
2019-09-22 09:00:00 12 6 Sur 12 Sur 0 -- -- 95
2019-09-22 08:00:00 11.7 7 Sur 14 Sudoeste 0 -- -- 94
2019-09-22 07:00:00 12.3 10 Sudoeste 20 Sudoeste 0 -- -- 93
2019-09-22 06:00:00 12.4 13 Sudoeste 22 Sur 0 -- -- 92
2019-09-22 05:00:00 12.4 13 Sudoeste 18 Sudoeste 0 -- -- 92
2019-09-22 04:00:00 12.2 14 Sudoeste 37 Oeste 0.2 -- -- 95
2019-09-22 03:00:00 12.4 31 Oeste 42 Oeste 2 -- -- 95
2019-09-22 02:00:00 15.6 15 Sudoeste 22 Sur 3 -- -- 95
2019-09-22 01:00:00 16.2 9 Sur 12 Sudeste 0 -- -- 87
2019-09-22 00:00:00 16.1 4 Este 18 Sudeste 0 -- -- 87
2019-09-21 23:00:00 17.1 12 Sudeste 20 Sudeste 0 -- -- 81
2019-09-21 22:00:00 16.4 11 Sudeste 18 Sudoeste 0 -- -- 88
2019-09-21 21:00:00 17 15 Sudoeste 23 Sudoeste 0 -- -- 84
2019-09-21 20:00:00 18 17 Sudoeste 33 Sudoeste 0 -- -- 78
2019-09-21 19:00:00 19.7 15 Sur 26 Sudoeste 0 -- -- 67
2019-09-21 18:00:00 19.7 18 Sudoeste 30 Sur 0 -- -- 69
2019-09-21 17:00:00 19.7 18 Sur 28 Sur 0.2 -- -- 67
2019-09-21 16:00:00 18.6 9 Este 14 Este 0 -- -- 80
2019-09-21 15:00:00 17.6 4 Este 22 Sudoeste 0.4 -- -- 80
2019-09-21 14:00:00 18.3 11 Sur 16 Sur 0.4 -- -- 75
2019-09-21 13:00:00 17.6 13 Sur 25 Sur 0 -- -- 80
2019-09-21 12:00:00 18 10 Sur 24 Sur 0 -- -- 75
2019-09-21 11:00:00 18.6 18 Sur 23 Sur 0 -- -- 66
2019-09-21 10:00:00 16.5 10 Sudeste 13 Sudeste 0 -- -- 77
2019-09-21 09:00:00 15 9 Sudeste 13 Este 0 -- -- 84
2019-09-21 08:00:00 13.1 9 Sudeste 13 Sudeste 0 -- -- 90
2019-09-21 07:00:00 14.1 8 Sudeste 17 Sur 0 -- -- 89
2019-09-21 06:00:00 14.8 10 Sur 24 Sudoeste 0 -- -- 82
2019-09-21 05:00:00 15.1 17 Sudoeste 31 Sudoeste 0 -- -- 79
2019-09-21 04:00:00 16.6 11 Sur 19 Sur 0 -- -- 77
2019-09-21 03:00:00 16.7 12 Sur 17 Sur 0 -- -- 80
2019-09-21 02:00:00 15.6 6 Este 9 Sudeste 0 -- -- 92
2019-09-21 01:00:00 17 7 Sudeste 11 Sur 0 -- -- 86
2019-09-21 00:00:00 17.2 7 Sur 12 Sur 0 -- -- 78
2019-09-20 23:00:00 16.5 9 Sur 11 Sudeste 0 -- -- 86
2019-09-20 22:00:00 17.5 9 Este 35 Sudeste 0.4 -- -- 79
2019-09-20 21:00:00 18.2 15 Sudeste 31 Sudoeste 0 -- -- 75
2019-09-20 20:00:00 19.1 25 Sudoeste 41 Sudoeste 0 -- -- 68
2019-09-20 19:00:00 22.8 7 Sur 35 Sudeste 0 -- -- 50
2019-09-20 18:00:00 24.7 29 Sudeste 38 Sudeste 0 -- -- 45
2019-09-20 17:00:00 26 23 Sudeste 46 Sudeste 0 -- -- 41
2019-09-20 16:00:00 27.1 30 Sudeste 45 Sudeste 0 -- -- 38
2019-09-20 15:00:00 26.7 25 Sudeste 37 Sudeste 0 -- -- 41
2019-09-20 14:00:00 25.1 27 Sudeste 37 Sudeste 0 -- -- 45
2019-09-20 13:00:00 25.1 25 Sudeste 47 Sudeste 0 -- -- 46
2019-09-20 12:00:00 23.8 31 Sudeste 42 Sudeste 0 -- -- 51
2019-09-20 11:00:00 22.3 34 Sudeste 45 Sudeste 0 -- -- 57
2019-09-20 10:00:00 20.6 25 Sudeste 36 Sudeste 0 -- -- 67
2019-09-20 09:00:00 18.6 24 Sudeste 31 Sudeste 0 -- -- 75
2019-09-20 08:00:00 18 22 Sudeste 29 Sudeste 0 -- -- 77
2019-09-20 07:00:00 16.8 9 Sudeste 14 Sudeste 0 -- -- 82
2019-09-20 06:00:00 16.2 0 Calma 7 Sur 0 -- -- 81
2019-09-20 05:00:00 15.5 5 Sudeste 6 Sudeste 0 -- -- 85
2019-09-20 04:00:00 15.1 5 Sur 5 Sur 0 -- -- 87
2019-09-20 03:00:00 15.1 6 Este 16 Este 0 -- -- 88
2019-09-20 02:00:00 15.9 3 Sur 12 Este 0 -- -- 85
2019-09-20 01:00:00 17.5 7 Sur 13 Sudeste 0 -- -- 78
2019-09-20 00:00:00 18.1 9 Sudeste 11 Sudeste 0 -- -- 74
2019-09-19 23:00:00 19.2 2 Nordeste 9 Nordeste 0 -- -- 62
2019-09-19 22:00:00 22.1 5 Nordeste 8 Norte 0 -- -- 48
2019-09-19 21:00:00 23.6 6 Norte 7 Norte 0 -- -- 45
2019-09-19 20:00:00 25.6 6 Norte 10 Nordeste 0 -- -- 36
2019-09-19 19:00:00 27.2 6 Noroeste 16 Noroeste 0 -- -- 32
2019-09-19 18:00:00 28.4 4 Oeste 18 Nordeste 0 -- -- 31
2019-09-19 17:00:00 29.4 5 Oeste 18 Oeste 0 -- -- 30
2019-09-19 16:00:00 26.8 7 Norte 16 Noroeste 0 -- -- 37
2019-09-19 15:00:00 26.9 4 Sudoeste 13 Nordeste 0 -- -- 41
2019-09-19 14:00:00 25.1 7 Norte 13 Norte 0 -- -- 46
2019-09-19 13:00:00 23.3 6 Norte 14 Norte 0 -- -- 53
2019-09-19 12:00:00 21.7 6 Nordeste 10 Nordeste 0 -- -- 58
2019-09-19 11:00:00 19.2 4 Norte 8 Nordeste 0 -- -- 71
2019-09-19 10:00:00 17.9 0 Calma 4 Este 0 -- -- 77
2019-09-19 09:00:00 13.4 0 Calma 4 Norte 0 -- -- 95
2019-09-19 08:00:00 11.3 0 Calma 3 Noroeste 0 -- -- 98
2019-09-19 07:00:00 11.7 0 Calma 3 Norte 0 -- -- 97
2019-09-19 06:00:00 11.8 2 Norte 4 Norte 0 -- -- 96
2019-09-19 05:00:00 12.8 2 Nordeste 5 Norte 0 -- -- 95
2019-09-19 04:00:00 13.3 0 Calma 5 Norte 0 -- -- 94
2019-09-19 03:00:00 14.3 6 Norte 9 Norte 0 -- -- 92
2019-09-19 02:00:00 15.4 3 Sur 7 Sur 0 -- -- 85
2019-09-19 01:00:00 16 5 Sur 8 Sudeste 0 -- -- 85
2019-09-19 00:00:00 16 4 Sur 5 Sudeste 0 -- -- 87
2019-09-18 23:00:00 17.3 4 Norte -- -- 0 -- -- 79
2019-09-18 22:00:00 18.1 0 Calma 5 Nordeste 0 -- -- 78
2019-09-18 21:00:00 20.8 4 Nordeste 8 Nordeste 0 -- -- 60
2019-09-18 20:00:00 23.7 6 Norte 10 Norte 0 -- -- 48
2019-09-18 19:00:00 25.1 6 Norte 14 Norte 0 -- -- 41
2019-09-18 18:00:00 25.7 6 Noroeste 16 Nordeste 0 -- -- 41
2019-09-18 17:00:00 25.2 6 Nordeste 21 Norte 0 -- -- 43
2019-09-18 16:00:00 24.7 8 Noroeste 17 Norte 0 -- -- 50
2019-09-18 15:00:00 23.4 6 Norte 14 Norte 0 -- -- 55
2019-09-18 14:00:00 24 4 Nordeste 12 Nordeste 0 -- -- 54
2019-09-18 13:00:00 21.7 4 Este 17 Norte 0 -- -- 63
2019-09-18 12:00:00 19.6 6 Norte 14 Norte 0 -- -- 75
2019-09-18 11:00:00 18.2 5 Nordeste 9 Nordeste 0 -- -- 77
2019-09-18 10:00:00 14.7 6 Sur 9 Sur 0 -- -- 92
2019-09-18 09:00:00 13.3 5 Sudoeste 8 Sur 0 -- -- 96
2019-09-18 08:00:00 11.6 0 Calma 7 Este 0 -- -- 98
2019-09-18 07:00:00 12.5 5 Este 9 Nordeste 0 -- -- 98
2019-09-18 06:00:00 12.8 0 Calma 13 Norte 0 -- -- 97
2019-09-18 05:00:00 13.3 9 Norte 15 Noroeste 0 -- -- 96
2019-09-18 04:00:00 14 12 Noroeste 15 Noroeste 0 -- -- 95
2019-09-18 03:00:00 14.5 5 Noroeste 10 Noroeste 0 -- -- 94
2019-09-18 02:00:00 14.8 8 Nordeste 16 Este 0 -- -- 90
2019-09-18 01:00:00 15 12 Este 24 Sudeste 0 -- -- 89
2019-09-18 00:00:00 15.2 18 Sudeste 28 Oeste 0 -- -- 86
2019-09-17 23:00:00 15.2 24 Oeste 41 Oeste 2.4 -- -- 88
2019-09-17 22:00:00 14.6 24 Sudoeste 55 Sur 6 -- -- 91
2019-09-17 21:00:00 15.5 46 Sudeste 75 Sudeste 1 -- -- 86